sensor_id;sensor_type;location;lat;lon;timestamp;P1;durP1;ratioP1;P2;durP2;ratioP2
4957;SDS011;2494;51.872;9.688;2023-02-10T00:00:00;45.73;;;27.70;;
4957;SDS011;2494;51.872;9.688;2023-02-10T00:02:46;44.40;;;28.90;;
4957;SDS011;2494;51.872;9.688;2023-02-10T00:05:31;52.23;;;28.90;;
4957;SDS011;2494;51.872;9.688;2023-02-10T00:08:17;56.57;;;31.33;;
4957;SDS011;2494;51.872;9.688;2023-02-10T00:11:05;48.00;;;31.13;;
4957;SDS011;2494;51.872;9.688;2023-02-10T00:13:50;48.90;;;29.10;;
4957;SDS011;2494;51.872;9.688;2023-02-10T00:16:36;59.10;;;33.30;;
4957;SDS011;2494;51.872;9.688;2023-02-10T00:19:21;54.33;;;32.47;;
4957;SDS011;2494;51.872;9.688;2023-02-10T00:22:06;49.60;;;31.17;;
4957;SDS011;2494;51.872;9.688;2023-02-10T00:24:51;62.83;;;32.70;;
4957;SDS011;2494;51.872;9.688;2023-02-10T00:27:38;53.50;;;32.10;;
4957;SDS011;2494;51.872;9.688;2023-02-10T00:30:22;65.33;;;32.20;;
4957;SDS011;2494;51.872;9.688;2023-02-10T00:33:08;51.43;;;31.47;;
4957;SDS011;2494;51.872;9.688;2023-02-10T00:35:53;53.00;;;32.67;;
4957;SDS011;2494;51.872;9.688;2023-02-10T00:38:38;57.43;;;31.67;;
4957;SDS011;2494;51.872;9.688;2023-02-10T00:41:24;53.57;;;32.73;;
4957;SDS011;2494;51.872;9.688;2023-02-10T00:44:11;55.57;;;31.97;;
4957;SDS011;2494;51.872;9.688;2023-02-10T00:46:56;58.47;;;33.50;;
4957;SDS011;2494;51.872;9.688;2023-02-10T00:49:42;65.17;;;35.20;;
4957;SDS011;2494;51.872;9.688;2023-02-10T00:52:27;68.23;;;36.87;;
4957;SDS011;2494;51.872;9.688;2023-02-10T00:55:13;62.00;;;36.90;;
4957;SDS011;2494;51.872;9.688;2023-02-10T00:57:58;53.03;;;34.40;;
4957;SDS011;2494;51.872;9.688;2023-02-10T01:00:45;60.27;;;36.27;;
4957;SDS011;2494;51.872;9.688;2023-02-10T01:03:30;62.07;;;34.67;;
4957;SDS011;2494;51.872;9.688;2023-02-10T01:06:15;61.43;;;35.50;;
4957;SDS011;2494;51.872;9.688;2023-02-10T01:09:00;58.20;;;34.90;;
4957;SDS011;2494;51.872;9.688;2023-02-10T01:11:45;61.40;;;36.40;;
4957;SDS011;2494;51.872;9.688;2023-02-10T01:14:30;69.27;;;36.20;;
4957;SDS011;2494;51.872;9.688;2023-02-10T01:17:18;68.20;;;38.17;;
4957;SDS011;2494;51.872;9.688;2023-02-10T01:20:03;64.53;;;36.23;;
4957;SDS011;2494;51.872;9.688;2023-02-10T01:22:49;67.07;;;37.70;;
4957;SDS011;2494;51.872;9.688;2023-02-10T01:25:34;76.23;;;38.00;;
4957;SDS011;2494;51.872;9.688;2023-02-10T01:28:19;72.93;;;38.40;;
4957;SDS011;2494;51.872;9.688;2023-02-10T01:31:05;69.33;;;38.43;;
4957;SDS011;2494;51.872;9.688;2023-02-10T01:33:53;73.73;;;41.13;;
4957;SDS011;2494;51.872;9.688;2023-02-10T01:36:38;65.80;;;38.10;;
4957;SDS011;2494;51.872;9.688;2023-02-10T01:39:24;62.23;;;36.60;;
4957;SDS011;2494;51.872;9.688;2023-02-10T01:42:10;70.53;;;39.37;;
4957;SDS011;2494;51.872;9.688;2023-02-10T01:45:11;83.90;;;42.70;;
4957;SDS011;2494;51.872;9.688;2023-02-10T01:47:56;78.93;;;41.10;;
4957;SDS011;2494;51.872;9.688;2023-02-10T01:50:44;68.20;;;39.00;;
4957;SDS011;2494;51.872;9.688;2023-02-10T01:53:31;73.80;;;40.10;;
4957;SDS011;2494;51.872;9.688;2023-02-10T01:56:15;76.67;;;39.50;;
4957;SDS011;2494;51.872;9.688;2023-02-10T01:59:01;79.03;;;39.23;;
4957;SDS011;2494;51.872;9.688;2023-02-10T02:01:47;69.73;;;40.23;;
4957;SDS011;2494;51.872;9.688;2023-02-10T02:04:34;82.70;;;41.27;;
4957;SDS011;2494;51.872;9.688;2023-02-10T02:07:24;71.47;;;39.30;;
4957;SDS011;2494;51.872;9.688;2023-02-10T02:10:13;73.87;;;38.13;;
4957;SDS011;2494;51.872;9.688;2023-02-10T02:13:00;70.53;;;39.73;;
4957;SDS011;2494;51.872;9.688;2023-02-10T02:15:50;68.40;;;41.40;;
4957;SDS011;2494;51.872;9.688;2023-02-10T02:18:36;75.03;;;40.07;;
4957;SDS011;2494;51.872;9.688;2023-02-10T02:21:31;69.43;;;38.43;;
4957;SDS011;2494;51.872;9.688;2023-02-10T02:24:33;63.53;;;38.90;;
4957;SDS011;2494;51.872;9.688;2023-02-10T02:30:43;74.83;;;41.40;;
4957;SDS011;2494;51.872;9.688;2023-02-10T02:33:33;67.80;;;37.80;;
4957;SDS011;2494;51.872;9.688;2023-02-10T02:36:22;72.43;;;39.17;;
4957;SDS011;2494;51.872;9.688;2023-02-10T02:39:09;63.07;;;38.47;;
4957;SDS011;2494;51.872;9.688;2023-02-10T02:42:13;74.17;;;38.83;;
4957;SDS011;2494;51.872;9.688;2023-02-10T02:44:59;70.03;;;37.93;;
4957;SDS011;2494;51.872;9.688;2023-02-10T02:47:54;66.30;;;38.50;;
4957;SDS011;2494;51.872;9.688;2023-02-10T02:50:44;84.10;;;40.83;;
4957;SDS011;2494;51.872;9.688;2023-02-10T02:53:34;70.30;;;41.23;;
4957;SDS011;2494;51.872;9.688;2023-02-10T02:56:24;73.50;;;40.67;;
4957;SDS011;2494;51.872;9.688;2023-02-10T02:59:12;79.00;;;40.90;;
4957;SDS011;2494;51.872;9.688;2023-02-10T03:01:59;68.27;;;37.63;;
4957;SDS011;2494;51.872;9.688;2023-02-10T03:04:45;69.50;;;40.33;;
4957;SDS011;2494;51.872;9.688;2023-02-10T03:07:31;71.27;;;38.87;;
4957;SDS011;2494;51.872;9.688;2023-02-10T03:10:17;75.30;;;40.03;;
4957;SDS011;2494;51.872;9.688;2023-02-10T03:13:02;75.97;;;42.63;;
4957;SDS011;2494;51.872;9.688;2023-02-10T03:15:47;70.53;;;39.67;;
4957;SDS011;2494;51.872;9.688;2023-02-10T03:18:32;73.03;;;38.97;;
4957;SDS011;2494;51.872;9.688;2023-02-10T03:21:17;70.30;;;38.83;;
4957;SDS011;2494;51.872;9.688;2023-02-10T03:24:05;67.73;;;37.37;;
4957;SDS011;2494;51.872;9.688;2023-02-10T03:26:52;72.00;;;38.83;;
4957;SDS011;2494;51.872;9.688;2023-02-10T03:29:37;67.13;;;36.77;;
4957;SDS011;2494;51.872;9.688;2023-02-10T03:32:22;65.60;;;39.10;;
4957;SDS011;2494;51.872;9.688;2023-02-10T03:35:08;65.10;;;35.33;;
4957;SDS011;2494;51.872;9.688;2023-02-10T03:37:53;59.67;;;34.77;;
4957;SDS011;2494;51.872;9.688;2023-02-10T03:40:40;63.00;;;37.90;;
4957;SDS011;2494;51.872;9.688;2023-02-10T03:43:24;64.30;;;35.03;;
4957;SDS011;2494;51.872;9.688;2023-02-10T03:46:10;68.67;;;38.40;;
4957;SDS011;2494;51.872;9.688;2023-02-10T03:48:55;69.50;;;37.53;;
4957;SDS011;2494;51.872;9.688;2023-02-10T03:51:40;65.43;;;33.10;;
4957;SDS011;2494;51.872;9.688;2023-02-10T03:54:25;66.90;;;33.47;;
4957;SDS011;2494;51.872;9.688;2023-02-10T03:57:12;63.20;;;35.27;;
4957;SDS011;2494;51.872;9.688;2023-02-10T03:59:57;71.20;;;37.27;;
4957;SDS011;2494;51.872;9.688;2023-02-10T04:02:43;65.60;;;35.57;;
4957;SDS011;2494;51.872;9.688;2023-02-10T04:05:28;59.43;;;34.07;;
4957;SDS011;2494;51.872;9.688;2023-02-10T04:08:13;59.90;;;34.77;;
4957;SDS011;2494;51.872;9.688;2023-02-10T04:10:58;63.83;;;36.70;;
4957;SDS011;2494;51.872;9.688;2023-02-10T04:13:45;57.30;;;35.00;;
4957;SDS011;2494;51.872;9.688;2023-02-10T04:16:30;59.40;;;35.33;;
4957;SDS011;2494;51.872;9.688;2023-02-10T04:19:16;57.73;;;33.37;;
4957;SDS011;2494;51.872;9.688;2023-02-10T04:22:01;68.90;;;35.23;;
4957;SDS011;2494;51.872;9.688;2023-02-10T04:24:46;64.07;;;34.90;;
4957;SDS011;2494;51.872;9.688;2023-02-10T04:27:31;52.83;;;33.67;;
4957;SDS011;2494;51.872;9.688;2023-02-10T04:30:18;62.10;;;33.87;;
4957;SDS011;2494;51.872;9.688;2023-02-10T04:33:03;66.03;;;34.40;;
4957;SDS011;2494;51.872;9.688;2023-02-10T04:35:48;59.37;;;33.90;;
4957;SDS011;2494;51.872;9.688;2023-02-10T04:38:33;62.37;;;35.80;;
4957;SDS011;2494;51.872;9.688;2023-02-10T04:41:18;63.97;;;35.20;;
4957;SDS011;2494;51.872;9.688;2023-02-10T04:44:04;58.07;;;33.87;;
4957;SDS011;2494;51.872;9.688;2023-02-10T04:46:50;63.53;;;36.30;;
4957;SDS011;2494;51.872;9.688;2023-02-10T04:49:35;59.40;;;33.70;;
4957;SDS011;2494;51.872;9.688;2023-02-10T04:52:20;52.33;;;32.10;;
4957;SDS011;2494;51.872;9.688;2023-02-10T04:55:07;66.27;;;36.40;;
4957;SDS011;2494;51.872;9.688;2023-02-10T04:57:52;57.47;;;35.27;;
4957;SDS011;2494;51.872;9.688;2023-02-10T05:00:37;59.60;;;35.27;;
4957;SDS011;2494;51.872;9.688;2023-02-10T05:03:24;63.80;;;34.93;;
4957;SDS011;2494;51.872;9.688;2023-02-10T05:06:10;58.20;;;33.80;;
4957;SDS011;2494;51.872;9.688;2023-02-10T05:08:56;61.90;;;35.10;;
4957;SDS011;2494;51.872;9.688;2023-02-10T05:11:41;66.63;;;34.60;;
4957;SDS011;2494;51.872;9.688;2023-02-10T05:14:27;62.60;;;34.17;;
4957;SDS011;2494;51.872;9.688;2023-02-10T05:17:12;57.93;;;34.20;;
4957;SDS011;2494;51.872;9.688;2023-02-10T05:19:59;64.13;;;35.03;;
4957;SDS011;2494;51.872;9.688;2023-02-10T05:22:44;62.97;;;36.50;;
4957;SDS011;2494;51.872;9.688;2023-02-10T05:25:28;58.10;;;35.47;;
4957;SDS011;2494;51.872;9.688;2023-02-10T05:28:14;64.60;;;36.40;;
4957;SDS011;2494;51.872;9.688;2023-02-10T05:30:59;66.53;;;37.67;;
4957;SDS011;2494;51.872;9.688;2023-02-10T05:33:44;58.00;;;33.40;;
4957;SDS011;2494;51.872;9.688;2023-02-10T05:36:31;63.27;;;34.40;;
4957;SDS011;2494;51.872;9.688;2023-02-10T05:39:16;55.27;;;33.20;;
4957;SDS011;2494;51.872;9.688;2023-02-10T05:42:07;58.83;;;32.83;;
4957;SDS011;2494;51.872;9.688;2023-02-10T05:44:52;75.60;;;37.53;;
4957;SDS011;2494;51.872;9.688;2023-02-10T05:47:38;63.50;;;33.77;;
4957;SDS011;2494;51.872;9.688;2023-02-10T05:50:23;59.60;;;33.40;;
4957;SDS011;2494;51.872;9.688;2023-02-10T05:53:10;70.30;;;33.97;;
4957;SDS011;2494;51.872;9.688;2023-02-10T05:55:57;62.73;;;35.07;;
4957;SDS011;2494;51.872;9.688;2023-02-10T05:58:42;61.07;;;33.97;;
4957;SDS011;2494;51.872;9.688;2023-02-10T06:01:27;63.53;;;34.30;;
4957;SDS011;2494;51.872;9.688;2023-02-10T06:04:12;66.00;;;34.53;;
4957;SDS011;2494;51.872;9.688;2023-02-10T06:06:57;55.23;;;33.10;;
4957;SDS011;2494;51.872;9.688;2023-02-10T06:09:44;61.33;;;33.90;;
4957;SDS011;2494;51.872;9.688;2023-02-10T06:12:29;68.10;;;37.30;;
4957;SDS011;2494;51.872;9.688;2023-02-10T06:15:15;65.83;;;36.10;;
4957;SDS011;2494;51.872;9.688;2023-02-10T06:18:00;71.20;;;36.70;;
4957;SDS011;2494;51.872;9.688;2023-02-10T06:20:45;63.37;;;36.73;;
4957;SDS011;2494;51.872;9.688;2023-02-10T06:23:30;63.03;;;36.03;;
4957;SDS011;2494;51.872;9.688;2023-02-10T06:26:17;57.40;;;33.40;;
4957;SDS011;2494;51.872;9.688;2023-02-10T06:29:02;58.13;;;32.57;;
4957;SDS011;2494;51.872;9.688;2023-02-10T06:31:48;58.53;;;32.07;;
4957;SDS011;2494;51.872;9.688;2023-02-10T06:34:32;52.30;;;30.60;;
4957;SDS011;2494;51.872;9.688;2023-02-10T06:37:17;58.10;;;32.47;;
4957;SDS011;2494;51.872;9.688;2023-02-10T06:40:03;58.70;;;32.57;;
4957;SDS011;2494;51.872;9.688;2023-02-10T06:42:50;58.37;;;31.47;;
4957;SDS011;2494;51.872;9.688;2023-02-10T06:45:35;53.13;;;30.20;;
4957;SDS011;2494;51.872;9.688;2023-02-10T06:48:20;48.87;;;30.17;;
4957;SDS011;2494;51.872;9.688;2023-02-10T06:51:06;56.57;;;31.77;;
4957;SDS011;2494;51.872;9.688;2023-02-10T06:53:51;66.07;;;31.63;;
4957;SDS011;2494;51.872;9.688;2023-02-10T06:56:37;59.07;;;31.70;;
4957;SDS011;2494;51.872;9.688;2023-02-10T06:59:24;59.57;;;32.20;;
4957;SDS011;2494;51.872;9.688;2023-02-10T07:02:10;54.17;;;32.20;;
4957;SDS011;2494;51.872;9.688;2023-02-10T07:04:55;55.97;;;31.80;;
4957;SDS011;2494;51.872;9.688;2023-02-10T07:07:40;55.03;;;30.67;;
4957;SDS011;2494;51.872;9.688;2023-02-10T07:10:28;64.50;;;33.33;;
4957;SDS011;2494;51.872;9.688;2023-02-10T07:13:13;52.87;;;32.10;;
4957;SDS011;2494;51.872;9.688;2023-02-10T07:16:01;45.87;;;29.13;;
4957;SDS011;2494;51.872;9.688;2023-02-10T07:18:46;56.87;;;33.70;;
4957;SDS011;2494;51.872;9.688;2023-02-10T07:21:31;57.87;;;31.80;;
4957;SDS011;2494;51.872;9.688;2023-02-10T07:24:17;63.77;;;33.27;;
4957;SDS011;2494;51.872;9.688;2023-02-10T07:27:02;61.03;;;33.20;;
4957;SDS011;2494;51.872;9.688;2023-02-10T07:29:48;63.97;;;34.57;;
4957;SDS011;2494;51.872;9.688;2023-02-10T07:32:35;54.43;;;32.10;;
4957;SDS011;2494;51.872;9.688;2023-02-10T07:35:20;66.23;;;35.63;;
4957;SDS011;2494;51.872;9.688;2023-02-10T07:38:06;59.10;;;32.90;;
4957;SDS011;2494;51.872;9.688;2023-02-10T07:40:51;68.50;;;33.63;;
4957;SDS011;2494;51.872;9.688;2023-02-10T07:43:36;69.20;;;34.73;;
4957;SDS011;2494;51.872;9.688;2023-02-10T07:46:21;60.83;;;35.80;;
4957;SDS011;2494;51.872;9.688;2023-02-10T07:49:08;58.67;;;35.43;;
4957;SDS011;2494;51.872;9.688;2023-02-10T07:51:54;63.57;;;35.10;;
4957;SDS011;2494;51.872;9.688;2023-02-10T07:54:39;51.43;;;29.20;;
4957;SDS011;2494;51.872;9.688;2023-02-10T07:57:25;65.63;;;34.03;;
4957;SDS011;2494;51.872;9.688;2023-02-10T08:00:10;65.03;;;38.13;;
4957;SDS011;2494;51.872;9.688;2023-02-10T08:02:58;65.40;;;35.27;;
4957;SDS011;2494;51.872;9.688;2023-02-10T08:05:45;62.60;;;33.93;;
4957;SDS011;2494;51.872;9.688;2023-02-10T08:08:32;60.37;;;34.50;;
4957;SDS011;2494;51.872;9.688;2023-02-10T08:11:18;58.47;;;32.97;;
4957;SDS011;2494;51.872;9.688;2023-02-10T08:14:04;61.33;;;34.43;;
4957;SDS011;2494;51.872;9.688;2023-02-10T08:16:49;60.60;;;31.90;;
4957;SDS011;2494;51.872;9.688;2023-02-10T08:19:34;65.63;;;37.57;;
4957;SDS011;2494;51.872;9.688;2023-02-10T08:22:22;56.80;;;34.67;;
4957;SDS011;2494;51.872;9.688;2023-02-10T08:25:07;58.33;;;35.83;;
4957;SDS011;2494;51.872;9.688;2023-02-10T08:27:53;56.87;;;33.97;;
4957;SDS011;2494;51.872;9.688;2023-02-10T08:30:38;65.97;;;34.90;;
4957;SDS011;2494;51.872;9.688;2023-02-10T08:33:23;56.97;;;34.50;;
4957;SDS011;2494;51.872;9.688;2023-02-10T08:36:10;56.00;;;34.30;;
4957;SDS011;2494;51.872;9.688;2023-02-10T08:38:57;58.20;;;33.73;;
4957;SDS011;2494;51.872;9.688;2023-02-10T08:41:42;60.70;;;32.37;;
4957;SDS011;2494;51.872;9.688;2023-02-10T08:44:27;54.70;;;33.30;;
4957;SDS011;2494;51.872;9.688;2023-02-10T08:47:13;53.03;;;32.20;;
4957;SDS011;2494;51.872;9.688;2023-02-10T08:49:58;51.63;;;31.17;;
4957;SDS011;2494;51.872;9.688;2023-02-10T08:52:44;49.80;;;29.53;;
4957;SDS011;2494;51.872;9.688;2023-02-10T08:55:33;52.20;;;31.30;;
4957;SDS011;2494;51.872;9.688;2023-02-10T08:58:18;40.90;;;26.80;;
4957;SDS011;2494;51.872;9.688;2023-02-10T09:01:07;43.13;;;27.90;;
4957;SDS011;2494;51.872;9.688;2023-02-10T09:03:53;51.07;;;27.13;;
4957;SDS011;2494;51.872;9.688;2023-02-10T09:06:39;42.77;;;25.23;;
4957;SDS011;2494;51.872;9.688;2023-02-10T09:09:25;40.13;;;26.23;;
4957;SDS011;2494;51.872;9.688;2023-02-10T09:12:12;42.00;;;25.57;;
4957;SDS011;2494;51.872;9.688;2023-02-10T09:14:58;39.17;;;23.33;;
4957;SDS011;2494;51.872;9.688;2023-02-10T09:17:43;54.50;;;25.30;;
4957;SDS011;2494;51.872;9.688;2023-02-10T09:20:29;44.93;;;24.43;;
4957;SDS011;2494;51.872;9.688;2023-02-10T09:23:13;42.93;;;27.33;;
4957;SDS011;2494;51.872;9.688;2023-02-10T09:25:59;48.60;;;26.80;;
4957;SDS011;2494;51.872;9.688;2023-02-10T09:28:46;38.33;;;25.37;;
4957;SDS011;2494;51.872;9.688;2023-02-10T09:31:31;46.63;;;26.67;;
4957;SDS011;2494;51.872;9.688;2023-02-10T09:34:17;39.57;;;25.00;;
4957;SDS011;2494;51.872;9.688;2023-02-10T09:37:03;45.93;;;25.13;;
4957;SDS011;2494;51.872;9.688;2023-02-10T09:39:50;46.67;;;25.43;;
4957;SDS011;2494;51.872;9.688;2023-02-10T09:42:40;39.50;;;24.97;;
4957;SDS011;2494;51.872;9.688;2023-02-10T09:45:33;43.63;;;24.03;;
4957;SDS011;2494;51.872;9.688;2023-02-10T09:48:25;43.73;;;24.43;;
4957;SDS011;2494;51.872;9.688;2023-02-10T09:51:14;52.90;;;25.27;;
4957;SDS011;2494;51.872;9.688;2023-02-10T09:54:01;44.00;;;24.73;;
4957;SDS011;2494;51.872;9.688;2023-02-10T09:56:46;45.50;;;24.60;;
4957;SDS011;2494;51.872;9.688;2023-02-10T09:59:32;41.63;;;24.00;;
4957;SDS011;2494;51.872;9.688;2023-02-10T10:02:22;48.40;;;27.30;;
4957;SDS011;2494;51.872;9.688;2023-02-10T10:05:13;50.60;;;26.53;;
4957;SDS011;2494;51.872;9.688;2023-02-10T10:08:01;42.90;;;26.40;;
4957;SDS011;2494;51.872;9.688;2023-02-10T10:10:49;41.83;;;24.97;;
4957;SDS011;2494;51.872;9.688;2023-02-10T10:13:35;48.37;;;27.10;;
4957;SDS011;2494;51.872;9.688;2023-02-10T10:16:24;49.57;;;26.93;;
4957;SDS011;2494;51.872;9.688;2023-02-10T10:19:13;42.37;;;25.10;;
4957;SDS011;2494;51.872;9.688;2023-02-10T10:22:08;48.07;;;27.70;;
4957;SDS011;2494;51.872;9.688;2023-02-10T10:25:06;45.30;;;25.87;;
4957;SDS011;2494;51.872;9.688;2023-02-10T10:27:54;42.03;;;26.37;;
4957;SDS011;2494;51.872;9.688;2023-02-10T10:30:43;37.40;;;25.97;;
4957;SDS011;2494;51.872;9.688;2023-02-10T10:33:30;46.07;;;24.23;;
4957;SDS011;2494;51.872;9.688;2023-02-10T10:36:20;47.10;;;27.50;;
4957;SDS011;2494;51.872;9.688;2023-02-10T10:39:09;50.73;;;28.83;;
4957;SDS011;2494;51.872;9.688;2023-02-10T10:41:56;56.13;;;26.17;;
4957;SDS011;2494;51.872;9.688;2023-02-10T10:44:43;41.83;;;26.00;;
4957;SDS011;2494;51.872;9.688;2023-02-10T10:47:31;48.50;;;28.03;;
4957;SDS011;2494;51.872;9.688;2023-02-10T10:50:20;47.43;;;27.40;;
4957;SDS011;2494;51.872;9.688;2023-02-10T10:53:13;52.67;;;28.10;;
4957;SDS011;2494;51.872;9.688;2023-02-10T10:55:59;43.80;;;24.57;;
4957;SDS011;2494;51.872;9.688;2023-02-10T10:58:46;41.13;;;24.20;;
4957;SDS011;2494;51.872;9.688;2023-02-10T11:01:33;45.80;;;25.50;;
4957;SDS011;2494;51.872;9.688;2023-02-10T11:04:20;37.57;;;23.27;;
4957;SDS011;2494;51.872;9.688;2023-02-10T11:07:08;42.73;;;23.73;;
4957;SDS011;2494;51.872;9.688;2023-02-10T11:09:56;40.37;;;24.33;;
4957;SDS011;2494;51.872;9.688;2023-02-10T11:12:44;39.47;;;24.10;;
4957;SDS011;2494;51.872;9.688;2023-02-10T11:15:35;37.90;;;23.17;;
4957;SDS011;2494;51.872;9.688;2023-02-10T11:18:22;33.90;;;21.83;;
4957;SDS011;2494;51.872;9.688;2023-02-10T11:21:08;41.53;;;24.00;;
4957;SDS011;2494;51.872;9.688;2023-02-10T11:23:54;42.27;;;23.93;;
4957;SDS011;2494;51.872;9.688;2023-02-10T11:26:41;40.20;;;23.43;;
4957;SDS011;2494;51.872;9.688;2023-02-10T11:29:29;42.03;;;23.57;;
4957;SDS011;2494;51.872;9.688;2023-02-10T11:32:17;38.53;;;23.20;;
4957;SDS011;2494;51.872;9.688;2023-02-10T11:35:03;43.33;;;22.40;;
4957;SDS011;2494;51.872;9.688;2023-02-10T11:37:51;43.80;;;26.17;;
4957;SDS011;2494;51.872;9.688;2023-02-10T11:40:46;39.40;;;22.73;;
4957;SDS011;2494;51.872;9.688;2023-02-10T11:43:36;36.23;;;22.03;;
4957;SDS011;2494;51.872;9.688;2023-02-10T11:46:23;36.73;;;22.40;;
4957;SDS011;2494;51.872;9.688;2023-02-10T11:49:16;41.60;;;22.27;;
4957;SDS011;2494;51.872;9.688;2023-02-10T11:52:02;38.03;;;22.93;;
4957;SDS011;2494;51.872;9.688;2023-02-10T11:54:49;39.40;;;22.53;;
4957;SDS011;2494;51.872;9.688;2023-02-10T11:57:37;36.53;;;22.37;;
4957;SDS011;2494;51.872;9.688;2023-02-10T12:00:47;33.93;;;19.63;;
4957;SDS011;2494;51.872;9.688;2023-02-10T12:03:37;34.77;;;21.10;;
4957;SDS011;2494;51.872;9.688;2023-02-10T12:06:30;39.33;;;22.30;;
4957;SDS011;2494;51.872;9.688;2023-02-10T12:09:20;40.23;;;21.20;;
4957;SDS011;2494;51.872;9.688;2023-02-10T12:12:09;31.50;;;18.40;;
4957;SDS011;2494;51.872;9.688;2023-02-10T12:15:00;27.47;;;17.43;;
4957;SDS011;2494;51.872;9.688;2023-02-10T12:17:55;29.23;;;18.00;;
4957;SDS011;2494;51.872;9.688;2023-02-10T12:20:51;28.80;;;18.70;;
4957;SDS011;2494;51.872;9.688;2023-02-10T12:23:43;32.40;;;17.47;;
4957;SDS011;2494;51.872;9.688;2023-02-10T12:26:32;25.30;;;17.30;;
4957;SDS011;2494;51.872;9.688;2023-02-10T12:29:24;32.80;;;19.60;;
4957;SDS011;2494;51.872;9.688;2023-02-10T12:32:16;34.30;;;19.37;;
4957;SDS011;2494;51.872;9.688;2023-02-10T12:38:19;32.30;;;18.50;;
4957;SDS011;2494;51.872;9.688;2023-02-10T12:41:11;33.97;;;20.17;;
4957;SDS011;2494;51.872;9.688;2023-02-10T12:44:03;28.63;;;17.37;;
4957;SDS011;2494;51.872;9.688;2023-02-10T12:46:54;33.47;;;15.90;;
4957;SDS011;2494;51.872;9.688;2023-02-10T12:49:46;32.17;;;17.77;;
4957;SDS011;2494;51.872;9.688;2023-02-10T12:52:36;25.57;;;16.67;;
4957;SDS011;2494;51.872;9.688;2023-02-10T12:55:27;28.63;;;17.07;;
4957;SDS011;2494;51.872;9.688;2023-02-10T12:58:15;29.13;;;16.43;;
4957;SDS011;2494;51.872;9.688;2023-02-10T13:01:05;32.70;;;18.60;;
4957;SDS011;2494;51.872;9.688;2023-02-10T13:03:56;23.90;;;18.27;;
4957;SDS011;2494;51.872;9.688;2023-02-10T13:06:44;26.43;;;16.83;;
4957;SDS011;2494;51.872;9.688;2023-02-10T13:09:35;27.77;;;17.70;;
4957;SDS011;2494;51.872;9.688;2023-02-10T13:12:26;28.60;;;18.40;;
4957;SDS011;2494;51.872;9.688;2023-02-10T13:15:14;23.93;;;15.00;;
4957;SDS011;2494;51.872;9.688;2023-02-10T13:17:59;27.47;;;16.00;;
4957;SDS011;2494;51.872;9.688;2023-02-10T13:20:49;24.30;;;16.13;;
4957;SDS011;2494;51.872;9.688;2023-02-10T13:23:40;40.13;;;15.10;;
4957;SDS011;2494;51.872;9.688;2023-02-10T13:26:35;21.73;;;14.00;;
4957;SDS011;2494;51.872;9.688;2023-02-10T13:29:28;24.67;;;13.80;;
4957;SDS011;2494;51.872;9.688;2023-02-10T13:32:22;26.17;;;13.70;;
4957;SDS011;2494;51.872;9.688;2023-02-10T13:35:13;28.47;;;14.10;;
4957;SDS011;2494;51.872;9.688;2023-02-10T13:37:59;20.80;;;13.40;;
4957;SDS011;2494;51.872;9.688;2023-02-10T13:40:51;27.47;;;14.07;;
4957;SDS011;2494;51.872;9.688;2023-02-10T13:43:36;19.80;;;13.17;;
4957;SDS011;2494;51.872;9.688;2023-02-10T13:46:25;18.40;;;12.27;;
4957;SDS011;2494;51.872;9.688;2023-02-10T13:49:14;23.93;;;13.07;;
4957;SDS011;2494;51.872;9.688;2023-02-10T13:52:02;21.23;;;12.40;;
4957;SDS011;2494;51.872;9.688;2023-02-10T13:54:56;18.37;;;11.97;;
4957;SDS011;2494;51.872;9.688;2023-02-10T13:57:51;17.60;;;12.10;;
4957;SDS011;2494;51.872;9.688;2023-02-10T14:00:43;17.87;;;12.03;;
4957;SDS011;2494;51.872;9.688;2023-02-10T14:03:31;20.03;;;11.83;;
4957;SDS011;2494;51.872;9.688;2023-02-10T14:06:17;17.57;;;11.37;;
4957;SDS011;2494;51.872;9.688;2023-02-10T14:09:02;31.93;;;16.93;;
4957;SDS011;2494;51.872;9.688;2023-02-10T14:11:50;30.70;;;15.97;;
4957;SDS011;2494;51.872;9.688;2023-02-10T14:14:37;20.60;;;12.73;;
4957;SDS011;2494;51.872;9.688;2023-02-10T14:17:24;20.90;;;11.17;;
4957;SDS011;2494;51.872;9.688;2023-02-10T14:20:17;16.37;;;10.57;;
4957;SDS011;2494;51.872;9.688;2023-02-10T14:23:15;15.80;;;8.93;;
4957;SDS011;2494;51.872;9.688;2023-02-10T14:26:04;19.63;;;9.47;;
4957;SDS011;2494;51.872;9.688;2023-02-10T14:28:52;17.70;;;9.43;;
4957;SDS011;2494;51.872;9.688;2023-02-10T14:31:39;16.73;;;8.33;;
4957;SDS011;2494;51.872;9.688;2023-02-10T14:34:25;13.13;;;8.90;;
4957;SDS011;2494;51.872;9.688;2023-02-10T14:37:15;24.90;;;8.73;;
4957;SDS011;2494;51.872;9.688;2023-02-10T14:40:01;16.57;;;9.40;;
4957;SDS011;2494;51.872;9.688;2023-02-10T14:42:47;14.83;;;9.43;;
4957;SDS011;2494;51.872;9.688;2023-02-10T14:45:32;16.50;;;9.43;;
4957;SDS011;2494;51.872;9.688;2023-02-10T14:48:22;17.50;;;9.83;;
4957;SDS011;2494;51.872;9.688;2023-02-10T14:51:18;14.27;;;9.77;;
4957;SDS011;2494;51.872;9.688;2023-02-10T14:54:09;9.83;;;7.90;;
4957;SDS011;2494;51.872;9.688;2023-02-10T14:56:54;19.10;;;10.03;;
4957;SDS011;2494;51.872;9.688;2023-02-10T14:59:40;15.50;;;8.23;;
4957;SDS011;2494;51.872;9.688;2023-02-10T15:02:26;13.73;;;10.77;;
4957;SDS011;2494;51.872;9.688;2023-02-10T15:05:16;14.20;;;9.23;;
4957;SDS011;2494;51.872;9.688;2023-02-10T15:08:03;14.30;;;9.03;;
4957;SDS011;2494;51.872;9.688;2023-02-10T15:10:51;13.40;;;8.97;;
4957;SDS011;2494;51.872;9.688;2023-02-10T15:13:38;15.33;;;9.73;;
4957;SDS011;2494;51.872;9.688;2023-02-10T15:16:24;15.50;;;8.70;;
4957;SDS011;2494;51.872;9.688;2023-02-10T15:19:13;16.00;;;10.27;;
4957;SDS011;2494;51.872;9.688;2023-02-10T15:21:58;22.30;;;11.10;;
4957;SDS011;2494;51.872;9.688;2023-02-10T15:24:43;28.33;;;12.23;;
4957;SDS011;2494;51.872;9.688;2023-02-10T15:27:30;25.93;;;11.17;;
4957;SDS011;2494;51.872;9.688;2023-02-10T15:30:21;22.73;;;12.33;;
4957;SDS011;2494;51.872;9.688;2023-02-10T15:33:10;19.43;;;10.80;;
4957;SDS011;2494;51.872;9.688;2023-02-10T15:36:09;17.40;;;10.03;;
4957;SDS011;2494;51.872;9.688;2023-02-10T15:39:00;16.60;;;9.63;;
4957;SDS011;2494;51.872;9.688;2023-02-10T15:41:55;18.70;;;10.77;;
4957;SDS011;2494;51.872;9.688;2023-02-10T15:44:43;21.20;;;11.30;;
4957;SDS011;2494;51.872;9.688;2023-02-10T15:47:42;20.17;;;10.33;;
4957;SDS011;2494;51.872;9.688;2023-02-10T15:50:28;22.53;;;11.70;;
4957;SDS011;2494;51.872;9.688;2023-02-10T15:53:16;17.00;;;11.07;;
4957;SDS011;2494;51.872;9.688;2023-02-10T15:56:04;16.90;;;9.03;;
4957;SDS011;2494;51.872;9.688;2023-02-10T15:58:50;15.40;;;10.60;;
4957;SDS011;2494;51.872;9.688;2023-02-10T16:01:37;15.67;;;9.43;;
4957;SDS011;2494;51.872;9.688;2023-02-10T16:04:23;19.33;;;11.13;;
4957;SDS011;2494;51.872;9.688;2023-02-10T16:07:09;17.70;;;10.87;;
4957;SDS011;2494;51.872;9.688;2023-02-10T16:09:56;16.40;;;11.00;;
4957;SDS011;2494;51.872;9.688;2023-02-10T16:12:41;15.23;;;10.10;;
4957;SDS011;2494;51.872;9.688;2023-02-10T16:15:27;18.50;;;11.67;;
4957;SDS011;2494;51.872;9.688;2023-02-10T16:18:15;18.63;;;11.27;;
4957;SDS011;2494;51.872;9.688;2023-02-10T16:21:03;18.10;;;12.60;;
4957;SDS011;2494;51.872;9.688;2023-02-10T16:23:50;21.23;;;13.17;;
4957;SDS011;2494;51.872;9.688;2023-02-10T16:26:36;19.90;;;11.83;;
4957;SDS011;2494;51.872;9.688;2023-02-10T16:29:24;21.73;;;14.50;;
4957;SDS011;2494;51.872;9.688;2023-02-10T16:32:10;24.73;;;15.10;;
4957;SDS011;2494;51.872;9.688;2023-02-10T16:34:57;22.67;;;13.27;;
4957;SDS011;2494;51.872;9.688;2023-02-10T16:37:42;24.03;;;14.37;;
4957;SDS011;2494;51.872;9.688;2023-02-10T16:40:28;20.90;;;13.83;;
4957;SDS011;2494;51.872;9.688;2023-02-10T16:43:13;23.30;;;14.33;;
4957;SDS011;2494;51.872;9.688;2023-02-10T16:45:59;33.20;;;17.83;;
4957;SDS011;2494;51.872;9.688;2023-02-10T16:48:44;22.13;;;14.37;;
4957;SDS011;2494;51.872;9.688;2023-02-10T16:51:31;21.30;;;13.40;;
4957;SDS011;2494;51.872;9.688;2023-02-10T16:54:16;21.23;;;13.30;;